.
Local / Fort Wayne - NE Ind.

U N D E R   C O N S T R U C T I O N

Local Weather
Fort Wayne – NE Indiana

Northern Indiana (IWX) Radar

Latest IWX NEXRAD
Base Reflectivity



Latest IWX NEXRAD
Base Velocity

Indiana-Ohio Visible Satellite

For infrared and water vapor imagery, see Great Lakes - Midwest.

Current Conditions

Recent report from the Fort Wayne International Airport

Aug 23, 2019 - 06:54 AM EDT / 2019.08.23 1054 UTC


The skies are mostly clear. The temperature is 59.0 F (15.0 C) and the dew point is 55.0 F (12.8 C), giving a relative humidity of 86%. The barometric pressure is 30.12 in. Hg (1019 hPa). The wind is from the ENE (060 degrees) at 5 MPH (4 KT), and the visibility is 10 mile(s).

KFWA 231054Z 06004KT 10SM FEW035 FEW300 15/13 A3012 RMK AO2 SLP196 T01500128

Local Weather — Contents

Local Weather — Links

CoCoRaHS
IN-AL-39
A2 Web Hosting
Creative Commons License
GoDaddy
search engine by freefind advanced

loaded 2019-08-23 07:55:54 • last modified 2017-02-11 13:27:36
Privacy PolicyDisclaimer
• wx.awcolley.com is powered by PmWiki v.2002016 •
• all content (unless otherwise noted) © 2019 A W Colley